»·PEaware :: CGFWS KBFI-KBLI

CGFWS :: KBFI-KBLI

FLIGHT INFORMATION

Flight Status: Arrived
Operator: Unknown
More flights by this operator :: More flights under this callsign
Pilot: Anonymous 35050 (35050)
Aircraft: CESSNA 182 SKYLANE
(C182)
More flights by this aircraft type
Origin: KBFI Boeing Field/King Co Intl
United States
Destination: KBLI Bellingham Intl
United States
More flights between these airports :: More routes between these airports
Route: NRVNA1 PAE
File this flight plan on PilotEdge
Remarks:
Altitude:
(Current/Filed)
6,000ft
Speed:
(Current/Filed)
130kts
Departed: 13-Feb-23 07:59 PM
Arrived: 13-Feb-23 08:41 PM
Distance/Time
Traveled:
76nm/0:42
Distance/Time
To Go:
Arrived

Flight Plot

Page will automatically refresh every two minutes.

Flight plan parsing failed; only flown route is shown


Map Options




Map Legend


Flown Route
Filed Route
Departure Airport
Arrival Airport
Navaid (VOR, NDB)
Fix

Horizontal Profiles

Position Reports

Time Latitude Longitude Heading Altitude Ground
Speed
13-Feb-23 19:40 47.536375 -122.304146 142 20ft 0kts
13-Feb-23 19:41 47.536375 -122.304146 142 20ft 0kts
13-Feb-23 19:42 47.536375 -122.304146 142 20ft 0kts
13-Feb-23 19:43 47.536375 -122.304146 142 20ft 0kts
13-Feb-23 19:44 47.536375 -122.304146 142 20ft 0kts
13-Feb-23 19:45 47.536375 -122.304146 142 20ft 0kts
13-Feb-23 19:46 47.536375 -122.304146 142 20ft 0kts
13-Feb-23 19:47 47.536375 -122.304146 142 20ft 0kts
13-Feb-23 19:48 47.536375 -122.304146 142 20ft 0kts
13-Feb-23 19:49 47.536375 -122.304146 142 20ft 0kts
13-Feb-23 19:50 47.536375 -122.304146 142 20ft 0kts
13-Feb-23 19:51 47.536375 -122.304146 142 20ft 0kts
13-Feb-23 19:52 47.536375 -122.304146 142 20ft 0kts
13-Feb-23 19:53 47.536335 -122.304213 264 20ft 1kts
13-Feb-23 19:54 47.537436 -122.306046 330 20ft 13kts
13-Feb-23 19:55 47.541053 -122.309410 287 20ft 11kts
13-Feb-23 19:56 47.540875 -122.310148 241 19ft 0kts
13-Feb-23 19:57 47.540002 -122.310874 152 17ft 15kts
13-Feb-23 19:58 47.520340 -122.295982 152 778ft 111kts
13-Feb-23 19:59 47.492834 -122.272331 147 1821ft 116kts
13-Feb-23 20:00 47.465734 -122.245913 146 2889ft 117kts
13-Feb-23 20:01 47.438801 -122.220248 147 3892ft 113kts
13-Feb-23 20:02 47.421110 -122.188600 60 4801ft 113kts
13-Feb-23 20:03 47.450332 -122.187506 351 5699ft 114kts
13-Feb-23 20:04 47.484986 -122.194209 352 5992ft 138kts
13-Feb-23 20:05 47.524116 -122.201618 352 5991ft 144kts
13-Feb-23 20:06 47.563810 -122.209192 352 5990ft 144kts
13-Feb-23 20:07 47.603688 -122.216826 352 5990ft 145kts
13-Feb-23 20:08 47.643805 -122.224519 352 5990ft 145kts
13-Feb-23 20:09 47.683965 -122.232234 352 5990ft 145kts
13-Feb-23 20:10 47.724126 -122.239961 352 5990ft 145kts
13-Feb-23 20:11 47.764317 -122.247706 352 5990ft 145kts
13-Feb-23 20:12 47.804547 -122.255471 352 5990ft 146kts
13-Feb-23 20:13 47.844657 -122.263225 352 5990ft 146kts
13-Feb-23 20:14 47.884771 -122.270991 352 5990ft 146kts
13-Feb-23 20:15 47.924943 -122.279504 349 5990ft 146kts
13-Feb-23 20:16 47.964700 -122.290954 349 5990ft 146kts
13-Feb-23 20:17 48.004502 -122.302595 349 5990ft 146kts
13-Feb-23 20:18 48.044237 -122.314258 349 5990ft 146kts
13-Feb-23 20:19 48.083937 -122.325933 349 5990ft 146kts
13-Feb-23 20:20 48.123770 -122.337870 345 5990ft 146kts
13-Feb-23 20:21 48.162665 -122.354767 343 5990ft 146kts
13-Feb-23 20:22 48.201597 -122.371992 343 5990ft 146kts
13-Feb-23 20:23 48.240455 -122.389233 343 5990ft 146kts
13-Feb-23 20:24 48.279305 -122.406504 343 5990ft 146kts
13-Feb-23 20:25 48.318197 -122.423821 343 5990ft 146kts
13-Feb-23 20:26 48.357060 -122.441157 343 5990ft 146kts
13-Feb-23 20:27 48.396053 -122.458574 343 5990ft 146kts
13-Feb-23 20:28 48.434381 -122.475695 343 5555ft 141kts
13-Feb-23 20:29 48.470943 -122.492056 343 4739ft 121kts
13-Feb-23 20:30 48.504438 -122.507127 343 4100ft 131kts
13-Feb-23 20:31 48.539637 -122.522938 343 3636ft 130kts
13-Feb-23 20:32 48.574396 -122.535533 355 3216ft 127kts
13-Feb-23 20:33 48.604155 -122.536697 359 3188ft 93kts
13-Feb-23 20:34 48.632852 -122.536839 0 3086ft 117kts
13-Feb-23 20:35 48.667044 -122.536937 0 2471ft 116kts
13-Feb-23 20:36 48.695775 -122.537086 0 1905ft 91kts
13-Feb-23 20:37 48.723277 -122.537204 0 1387ft 102kts
13-Feb-23 20:38 48.750579 -122.537329 0 849ft 89kts
13-Feb-23 20:39 48.776090 -122.537440 359 358ft 79kts
13-Feb-23 20:40 48.789530 -122.537499 355 161ft 22kts
13-Feb-23 20:41 48.790808 -122.536220 42 160ft 0kts
13-Feb-23 20:42 48.791921 -122.534818 40 161ft 9kts
13-Feb-23 20:43 48.792914 -122.533108 54 159ft 0kts
13-Feb-23 20:44 48.792914 -122.533108 54 159ft 0kts

Navigation Log

Ident Type
Flight plan parsing failed, navigation log unavailable